createdAt,value
2018-11-27T00:00:18.176Z,12.90
2018-11-27T00:02:46.161Z,12.90
2018-11-27T00:05:14.125Z,13.13
2018-11-27T00:07:42.130Z,12.53
2018-11-27T00:10:10.400Z,11.40
2018-11-27T00:12:38.369Z,12.10
2018-11-27T00:15:11.420Z,13.20
2018-11-27T00:17:39.459Z,12.13
2018-11-27T00:20:10.562Z,12.20
2018-11-27T00:22:39.104Z,11.77
2018-11-27T00:25:09.919Z,13.30
2018-11-27T00:27:37.997Z,12.43
2018-11-27T00:30:08.179Z,11.00
2018-11-27T00:32:36.544Z,13.27
2018-11-27T00:35:05.518Z,12.03
2018-11-27T00:37:33.475Z,11.90
2018-11-27T00:40:01.510Z,12.60
2018-11-27T00:42:29.473Z,12.50
2018-11-27T00:44:57.524Z,12.43
2018-11-27T00:47:25.487Z,13.43
2018-11-27T00:49:53.466Z,13.67
2018-11-27T00:52:21.428Z,13.50
2018-11-27T00:54:49.480Z,12.47
2018-11-27T00:57:17.486Z,13.57
2018-11-27T00:59:45.648Z,12.83
2018-11-27T01:02:13.600Z,13.30
2018-11-27T01:04:41.625Z,11.67
2018-11-27T01:07:09.631Z,12.73
2018-11-27T01:09:37.630Z,12.13
2018-11-27T01:12:05.701Z,11.87
2018-11-27T01:14:33.676Z,12.03
2018-11-27T01:17:01.601Z,11.97
2018-11-27T01:19:29.533Z,12.80
2018-11-27T01:21:57.589Z,12.27
2018-11-27T01:24:25.554Z,11.60
2018-11-27T01:26:53.521Z,12.63
2018-11-27T01:29:21.528Z,12.07
2018-11-27T01:31:49.495Z,12.63
2018-11-27T01:34:17.461Z,11.70
2018-11-27T01:36:45.668Z,12.10
2018-11-27T01:39:13.707Z,12.20
2018-11-27T01:41:41.669Z,11.50
2018-11-27T01:44:09.597Z,11.30
2018-11-27T01:46:37.593Z,11.33
2018-11-27T01:49:06.169Z,11.43
2018-11-27T01:51:34.126Z,12.53
2018-11-27T01:54:02.074Z,11.77
2018-11-27T01:56:30.004Z,11.93
2018-11-27T01:58:57.952Z,11.50
2018-11-27T02:01:25.917Z,11.63
2018-11-27T02:03:53.874Z,11.77
2018-11-27T02:06:21.831Z,11.57
2018-11-27T02:08:49.908Z,11.13
2018-11-27T02:11:17.830Z,11.57
2018-11-27T02:13:45.791Z,11.73
2018-11-27T02:16:13.754Z,11.53
2018-11-27T02:18:41.692Z,11.47
2018-11-27T02:21:09.645Z,10.90
2018-11-27T02:23:37.611Z,11.73
2018-11-27T02:26:05.643Z,10.93
2018-11-27T02:28:33.626Z,11.53
2018-11-27T02:31:01.567Z,10.43
2018-11-27T02:33:29.528Z,11.60
2018-11-27T02:35:57.483Z,11.43
2018-11-27T02:38:25.436Z,11.37
2018-11-27T02:40:53.462Z,11.30
2018-11-27T02:43:21.418Z,11.47
2018-11-27T02:45:49.378Z,11.13
2018-11-27T02:48:17.314Z,12.03
2018-11-27T02:50:45.340Z,11.20
2018-11-27T02:53:13.430Z,12.10
2018-11-27T02:55:41.359Z,12.23
2018-11-27T02:58:09.319Z,11.77
2018-11-27T03:00:37.390Z,12.47
2018-11-27T03:03:06.178Z,11.13
2018-11-27T03:05:36.093Z,12.07
2018-11-27T03:08:04.187Z,11.57
2018-11-27T03:10:32.141Z,11.87
2018-11-27T03:13:00.165Z,12.13
2018-11-27T03:15:28.370Z,11.30
2018-11-27T03:17:56.370Z,11.30
2018-11-27T03:20:24.399Z,11.27
2018-11-27T03:22:52.451Z,11.07
2018-11-27T03:25:21.485Z,10.93
2018-11-27T03:27:50.406Z,10.30
2018-11-27T03:30:20.957Z,11.33
2018-11-27T03:32:48.957Z,11.00
2018-11-27T03:35:19.830Z,10.33
2018-11-27T03:37:47.967Z,10.87
2018-11-27T03:40:25.007Z,10.83
2018-11-27T03:42:52.941Z,10.93
2018-11-27T03:45:21.541Z,10.83
2018-11-27T03:47:49.561Z,10.57
2018-11-27T03:50:21.448Z,11.10
2018-11-27T03:52:49.377Z,10.57
2018-11-27T03:55:17.361Z,10.87
2018-11-27T03:57:45.380Z,11.30
2018-11-27T04:00:18.913Z,11.47
2018-11-27T04:02:50.207Z,10.47
2018-11-27T04:05:18.186Z,11.87
2018-11-27T04:07:46.292Z,11.30
2018-11-27T04:10:15.548Z,11.17
2018-11-27T04:12:43.629Z,9.77
2018-11-27T04:15:12.232Z,11.10
2018-11-27T04:17:40.193Z,10.63
2018-11-27T04:20:09.290Z,10.50
2018-11-27T04:22:37.687Z,10.03
2018-11-27T04:25:10.133Z,11.53
2018-11-27T04:27:38.199Z,11.20
2018-11-27T04:30:08.556Z,11.53
2018-11-27T04:32:37.671Z,10.73
2018-11-27T04:35:06.307Z,10.50
2018-11-27T04:37:34.301Z,11.40
2018-11-27T04:40:02.580Z,10.60
2018-11-27T04:42:30.513Z,10.70
2018-11-27T04:44:58.585Z,10.30
2018-11-27T04:47:26.646Z,10.97
2018-11-27T04:49:54.591Z,11.47
2018-11-27T04:52:22.530Z,11.63
2018-11-27T04:54:50.483Z,10.73
2018-11-27T04:57:18.573Z,11.63
2018-11-27T04:59:46.590Z,10.23
2018-11-27T05:02:14.517Z,10.73
2018-11-27T05:04:42.786Z,10.17
2018-11-27T05:07:10.721Z,10.03
2018-11-27T05:09:38.662Z,11.67
2018-11-27T05:12:06.621Z,10.47
2018-11-27T05:14:34.670Z,10.57
2018-11-27T05:17:02.670Z,10.93
2018-11-27T05:19:30.684Z,9.93
2018-11-27T05:21:59.437Z,10.67
2018-11-27T05:24:27.425Z,11.20
2018-11-27T05:26:55.397Z,11.10
2018-11-27T05:29:23.341Z,11.20
2018-11-27T05:31:51.264Z,10.50
2018-11-27T05:34:19.323Z,10.83
2018-11-27T05:36:47.249Z,10.03
2018-11-27T05:39:15.316Z,10.73
2018-11-27T05:41:43.268Z,9.87
2018-11-27T05:44:11.195Z,11.00
2018-11-27T05:46:39.134Z,10.43
2018-11-27T05:49:07.106Z,10.43
2018-11-27T05:51:35.137Z,10.70
2018-11-27T05:54:03.073Z,9.60
2018-11-27T05:56:31.005Z,10.80
2018-11-27T05:58:58.965Z,10.20
2018-11-27T06:01:26.896Z,10.53
2018-11-27T06:03:54.914Z,10.67
2018-11-27T06:06:22.897Z,10.47
2018-11-27T06:08:50.849Z,10.80
2018-11-27T06:11:18.850Z,11.17
2018-11-27T06:13:46.850Z,10.80
2018-11-27T06:16:14.781Z,11.70
2018-11-27T06:18:42.840Z,10.53
2018-11-27T06:21:10.752Z,10.60
2018-11-27T06:23:38.724Z,10.77
2018-11-27T06:26:06.721Z,10.03
2018-11-27T06:28:34.715Z,11.27
2018-11-27T06:31:03.017Z,10.53
2018-11-27T06:33:31.097Z,11.47
2018-11-27T06:35:59.017Z,10.17
2018-11-27T06:38:27.030Z,10.97
2018-11-27T06:40:55.309Z,10.27
2018-11-27T06:43:23.430Z,9.63
2018-11-27T06:45:51.393Z,11.27
2018-11-27T06:48:19.937Z,10.77
2018-11-27T06:50:48.543Z,10.47
2018-11-27T06:53:16.556Z,10.10
2018-11-27T06:55:44.597Z,10.33
2018-11-27T06:58:12.582Z,10.40
2018-11-27T07:00:40.738Z,9.90
2018-11-27T07:03:10.333Z,9.80
2018-11-27T07:05:38.709Z,10.17
2018-11-27T07:08:07.883Z,9.57
2018-11-27T07:10:36.077Z,11.00
2018-11-27T07:13:14.620Z,10.37
2018-11-27T07:15:42.561Z,11.27
2018-11-27T07:18:10.515Z,10.23
2018-11-27T07:20:38.472Z,10.20
2018-11-27T07:23:07.130Z,10.77
2018-11-27T07:25:35.261Z,9.43
2018-11-27T07:28:03.227Z,9.40
2018-11-27T07:30:31.192Z,10.10
2018-11-27T07:32:59.187Z,9.80
2018-11-27T07:35:27.215Z,10.03
2018-11-27T07:37:55.183Z,10.47
2018-11-27T07:40:24.333Z,9.27
2018-11-27T07:43:09.610Z,9.40
2018-11-27T07:45:37.725Z,9.57
2018-11-27T07:48:06.761Z,9.40
2018-11-27T07:50:35.252Z,10.23
2018-11-27T07:53:03.214Z,9.80
2018-11-27T07:55:31.309Z,9.60
2018-11-27T07:57:59.262Z,10.30
2018-11-27T08:00:27.956Z,9.37
2018-11-27T08:02:57.028Z,9.57
2018-11-27T08:05:35.232Z,9.33
2018-11-27T08:08:03.543Z,9.93
2018-11-27T08:10:32.230Z,9.47
2018-11-27T08:13:00.175Z,10.30
2018-11-27T08:15:29.265Z,9.47
2018-11-27T08:17:57.215Z,9.80
2018-11-27T08:20:26.237Z,10.20
2018-11-27T08:22:54.218Z,10.30
2018-11-27T08:25:22.161Z,10.07
2018-11-27T08:27:50.097Z,11.63
2018-11-27T08:30:19.146Z,10.13
2018-11-27T08:32:47.801Z,9.33
2018-11-27T08:35:17.624Z,9.53
2018-11-27T08:37:46.354Z,10.10
2018-11-27T08:40:15.221Z,10.43
2018-11-27T08:42:43.236Z,9.40
2018-11-27T08:45:14.370Z,9.63
2018-11-27T08:47:42.378Z,10.03
2018-11-27T08:50:12.624Z,10.13
2018-11-27T08:52:46.460Z,9.63
2018-11-27T08:55:10.657Z,9.17
2018-11-27T08:57:38.734Z,9.10
2018-11-27T09:00:11.282Z,9.37
2018-11-27T09:02:39.929Z,9.63
2018-11-27T09:05:07.933Z,9.33
2018-11-27T09:07:35.916Z,9.67
2018-11-27T09:10:04.490Z,8.20
2018-11-27T09:12:32.509Z,9.70
2018-11-27T09:15:00.491Z,10.90
2018-11-27T09:17:28.414Z,9.67
2018-11-27T09:19:56.349Z,8.57
2018-11-27T09:22:24.359Z,8.40
2018-11-27T09:24:52.300Z,9.47
2018-11-27T09:27:20.230Z,8.53
2018-11-27T09:29:48.201Z,9.13
2018-11-27T09:32:16.276Z,9.80
2018-11-27T09:34:44.279Z,8.47
2018-11-27T09:37:12.237Z,9.00
2018-11-27T09:39:40.176Z,9.50
2018-11-27T09:42:08.114Z,10.87
2018-11-27T09:44:36.062Z,9.07
2018-11-27T09:47:04.150Z,8.83
2018-11-27T09:49:32.078Z,9.20
2018-11-27T09:52:00.083Z,9.13
2018-11-27T09:54:28.185Z,8.50
2018-11-27T09:56:56.231Z,7.93
2018-11-27T09:59:24.189Z,8.40
2018-11-27T10:01:52.174Z,9.20
2018-11-27T10:04:20.204Z,8.47
2018-11-27T10:06:48.227Z,9.83
2018-11-27T10:09:16.182Z,9.43
2018-11-27T10:11:44.170Z,8.97
2018-11-27T10:14:12.326Z,9.47
2018-11-27T10:16:40.293Z,9.97
2018-11-27T10:19:08.221Z,9.50
2018-11-27T10:21:36.181Z,9.93
2018-11-27T10:24:04.127Z,9.50
2018-11-27T10:26:32.118Z,9.10
2018-11-27T10:29:00.117Z,8.83
2018-11-27T10:31:28.223Z,8.33
2018-11-27T10:33:56.173Z,8.93
2018-11-27T10:36:24.163Z,9.57
2018-11-27T10:38:52.236Z,9.70
2018-11-27T10:41:20.193Z,8.60
2018-11-27T10:43:48.123Z,9.20
2018-11-27T10:46:16.081Z,11.00
2018-11-27T10:48:44.078Z,11.20
2018-11-27T10:51:12.077Z,11.37
2018-11-27T10:53:40.045Z,10.80
2018-11-27T10:56:08.117Z,10.23
2018-11-27T10:58:36.722Z,10.50
2018-11-27T11:01:09.599Z,11.20
2018-11-27T11:03:37.528Z,11.67
2018-11-27T11:06:06.864Z,10.53
2018-11-27T11:08:34.825Z,10.77
2018-11-27T11:11:02.761Z,9.40
2018-11-27T11:13:30.744Z,10.13
2018-11-27T11:15:58.837Z,10.73
2018-11-27T11:18:26.772Z,11.37
2018-11-27T11:20:54.721Z,10.80
2018-11-27T11:23:22.744Z,11.80
2018-11-27T11:25:50.714Z,11.90
2018-11-27T11:28:20.229Z,11.93
2018-11-27T11:30:48.226Z,11.77
2018-11-27T11:33:16.159Z,12.37
2018-11-27T11:35:44.141Z,12.20
2018-11-27T11:38:12.127Z,11.37
2018-11-27T11:40:40.149Z,10.60
2018-11-27T11:43:08.185Z,10.43
2018-11-27T11:45:36.129Z,10.87
2018-11-27T11:48:04.064Z,11.73
2018-11-27T11:50:34.133Z,10.03
2018-11-27T11:53:07.582Z,9.87
2018-11-27T11:55:35.574Z,10.37
2018-11-27T11:58:03.545Z,9.57
2018-11-27T12:00:34.481Z,11.17
2018-11-27T12:03:02.480Z,11.27
2018-11-27T12:05:30.412Z,11.17
2018-11-27T12:07:58.358Z,11.53
2018-11-27T12:10:26.322Z,10.43
2018-11-27T12:12:54.289Z,10.60
2018-11-27T12:15:22.298Z,11.10
2018-11-27T12:17:51.071Z,10.73
2018-11-27T12:20:19.586Z,11.57
2018-11-27T12:22:49.393Z,11.73
2018-11-27T12:25:17.365Z,12.97
2018-11-27T12:27:45.298Z,13.87
2018-11-27T12:30:19.541Z,12.63
2018-11-27T12:32:47.478Z,12.83
2018-11-27T12:35:16.006Z,11.53
2018-11-27T12:37:44.026Z,12.33
2018-11-27T12:40:13.894Z,15.13
2018-11-27T12:42:41.848Z,12.17
2018-11-27T12:45:13.112Z,12.27
2018-11-27T12:47:41.068Z,12.47
2018-11-27T12:50:13.372Z,12.30
2018-11-27T12:52:41.468Z,13.47
2018-11-27T12:55:12.028Z,13.43
2018-11-27T12:57:39.976Z,12.13
2018-11-27T13:00:15.969Z,10.47
2018-11-27T13:02:44.100Z,11.37
2018-11-27T13:05:13.245Z,11.80
2018-11-27T13:07:41.326Z,13.00
2018-11-27T13:10:13.669Z,11.77
2018-11-27T13:12:42.059Z,12.00
2018-11-27T13:15:11.949Z,12.93
2018-11-27T13:17:40.698Z,11.47
2018-11-27T13:20:12.334Z,12.00
2018-11-27T13:22:40.482Z,12.70
2018-11-27T13:25:12.054Z,11.97
2018-11-27T13:27:40.055Z,11.60
2018-11-27T13:31:16.385Z,12.73
2018-11-27T13:33:49.291Z,10.97
2018-11-27T13:36:17.342Z,11.50
2018-11-27T13:38:45.312Z,10.40
2018-11-27T13:41:13.386Z,10.40
2018-11-27T13:43:41.352Z,9.50
2018-11-27T13:46:09.633Z,9.57
2018-11-27T13:48:37.600Z,10.40
2018-11-27T13:51:06.285Z,11.17
2018-11-27T13:53:34.699Z,9.23
2018-11-27T13:56:02.593Z,8.30
2018-11-27T13:58:30.613Z,12.27
2018-11-27T14:00:58.648Z,9.03
2018-11-27T14:03:26.650Z,9.00
2018-11-27T14:05:54.593Z,8.53
2018-11-27T14:08:22.545Z,9.10
2018-11-27T14:10:50.571Z,6.70
2018-11-27T14:13:18.500Z,7.30
2018-11-27T14:15:46.503Z,6.20
2018-11-27T14:18:14.580Z,6.83
2018-11-27T14:20:42.545Z,7.20
2018-11-27T14:23:10.511Z,7.53
2018-11-27T14:25:38.635Z,7.67
2018-11-27T14:28:06.555Z,7.20
2018-11-27T14:30:34.485Z,7.37
2018-11-27T14:33:02.499Z,7.30
2018-11-27T14:35:30.433Z,7.47
2018-11-27T14:37:58.432Z,7.80
2018-11-27T14:40:27.321Z,6.67
2018-11-27T14:42:55.390Z,7.70
2018-11-27T14:45:24.582Z,7.50
2018-11-27T14:47:53.819Z,7.13
2018-11-27T14:50:21.861Z,9.30
2018-11-27T14:52:49.861Z,7.63
2018-11-27T14:55:25.329Z,6.67
2018-11-27T14:57:53.439Z,7.70
2018-11-27T15:00:22.512Z,6.67
2018-11-27T15:02:50.718Z,7.53
2018-11-27T15:05:21.332Z,7.17
2018-11-27T15:07:49.328Z,7.63
2018-11-27T15:10:17.286Z,7.70
2018-11-27T15:12:45.229Z,7.67
2018-11-27T15:15:13.727Z,8.13
2018-11-27T15:17:41.685Z,8.20
2018-11-27T15:20:11.557Z,8.63
2018-11-27T15:22:39.595Z,8.57
2018-11-27T15:25:07.883Z,7.17
2018-11-27T15:27:36.692Z,8.03
2018-11-27T15:30:10.866Z,7.30
2018-11-27T15:32:39.157Z,8.07
2018-11-27T15:35:07.448Z,8.57
2018-11-27T15:37:35.405Z,7.40
2018-11-27T15:40:03.410Z,7.80
2018-11-27T15:42:31.369Z,7.53
2018-11-27T15:45:00.099Z,8.23
2018-11-27T15:47:28.052Z,8.70
2018-11-27T15:49:56.121Z,7.73
2018-11-27T15:52:24.257Z,8.13
2018-11-27T15:54:52.189Z,8.90
2018-11-27T15:57:20.202Z,8.63
2018-11-27T15:59:48.584Z,7.93
2018-11-27T16:02:16.522Z,7.43
2018-11-27T16:04:44.452Z,8.23
2018-11-27T16:07:12.610Z,7.93
2018-11-27T16:09:40.548Z,8.37
2018-11-27T16:12:08.557Z,8.57
2018-11-27T16:14:36.592Z,7.97
2018-11-27T16:17:04.669Z,7.47
2018-11-27T16:19:32.632Z,8.77
2018-11-27T16:22:00.791Z,9.10
2018-11-27T16:24:28.732Z,9.87
2018-11-27T16:26:56.664Z,8.80
2018-11-27T16:29:24.651Z,9.57
2018-11-27T16:31:53.217Z,9.70
2018-11-27T16:34:21.150Z,9.70
2018-11-27T16:36:49.142Z,10.03
2018-11-27T16:39:17.098Z,10.40
2018-11-27T16:41:45.045Z,9.73
2018-11-27T16:44:13.039Z,11.90
2018-11-27T16:46:40.981Z,11.87
2018-11-27T16:49:09.157Z,11.10
2018-11-27T16:51:37.137Z,10.23
2018-11-27T16:54:05.713Z,17.27
2018-11-27T16:56:33.689Z,10.73
2018-11-27T16:59:01.858Z,9.87
2018-11-27T17:01:29.793Z,10.60
2018-11-27T17:03:57.754Z,10.37
2018-11-27T17:06:25.731Z,11.60
2018-11-27T17:08:53.737Z,12.40
2018-11-27T17:11:21.770Z,12.73
2018-11-27T17:13:49.914Z,13.33
2018-11-27T17:16:17.896Z,12.17
2018-11-27T17:18:45.830Z,12.43
2018-11-27T17:21:13.826Z,12.33
2018-11-27T17:23:41.800Z,12.87
2018-11-27T17:26:09.784Z,13.37
2018-11-27T17:28:37.736Z,13.37
2018-11-27T17:31:13.010Z,18.27
2018-11-27T17:33:45.970Z,17.00
2018-11-27T17:36:13.916Z,13.43
2018-11-27T17:38:41.860Z,12.80
2018-11-27T17:41:13.579Z,13.80
2018-11-27T17:43:41.593Z,12.30
2018-11-27T17:46:09.671Z,9.70
2018-11-27T17:48:37.892Z,9.53
2018-11-27T17:51:06.685Z,8.73
2018-11-27T17:53:34.639Z,9.27
2018-11-27T17:56:02.566Z,10.77
2018-11-27T17:58:30.699Z,10.90
2018-11-27T18:00:58.685Z,11.10
2018-11-27T18:03:26.749Z,11.57
2018-11-27T18:05:54.794Z,12.07
2018-11-27T18:08:22.855Z,12.30
2018-11-27T18:10:50.785Z,11.07
2018-11-27T18:13:18.827Z,12.03
2018-11-27T18:15:46.821Z,13.27
2018-11-27T18:18:14.797Z,11.27
2018-11-27T18:20:42.754Z,12.07
2018-11-27T18:23:10.721Z,12.20
2018-11-27T18:25:38.688Z,12.30
2018-11-27T18:28:06.637Z,13.17
2018-11-27T18:30:34.608Z,13.10
2018-11-27T18:33:02.569Z,12.70
2018-11-27T18:35:30.516Z,12.10
2018-11-27T18:37:58.567Z,13.03
2018-11-27T18:40:26.543Z,11.80
2018-11-27T18:42:54.469Z,12.93
2018-11-27T18:45:25.168Z,12.43
2018-11-27T18:47:53.142Z,11.57
2018-11-27T18:50:22.169Z,11.63
2018-11-27T18:52:50.151Z,10.80
2018-11-27T18:55:18.086Z,10.73
2018-11-27T18:57:46.906Z,11.13
2018-11-27T19:00:17.113Z,11.43
2018-11-27T19:02:45.271Z,9.93
2018-11-27T19:05:13.297Z,11.83
2018-11-27T19:07:41.377Z,10.37
2018-11-27T19:10:15.567Z,11.20
2018-11-27T19:12:43.636Z,10.13
2018-11-27T19:15:16.093Z,11.67
2018-11-27T19:17:45.370Z,11.43
2018-11-27T19:20:13.368Z,10.77
2018-11-27T19:22:41.333Z,10.20
2018-11-27T19:25:13.522Z,9.67
2018-11-27T19:27:45.675Z,11.10
2018-11-27T19:30:19.873Z,9.83
2018-11-27T19:32:47.872Z,8.83
2018-11-27T19:35:16.909Z,10.27
2018-11-27T19:37:45.696Z,9.77
2018-11-27T19:40:15.217Z,9.97
2018-11-27T19:42:43.259Z,10.90
2018-11-27T19:45:21.529Z,12.83
2018-11-27T19:47:49.641Z,10.60
2018-11-27T19:50:17.714Z,9.97
2018-11-27T19:52:46.646Z,10.37
2018-11-27T19:55:16.464Z,9.50
2018-11-27T19:57:44.477Z,9.83
2018-11-27T20:00:14.852Z,9.57
2018-11-27T20:02:43.182Z,9.60
2018-11-27T20:05:12.298Z,9.23
2018-11-27T20:07:40.354Z,10.17
2018-11-27T20:10:10.283Z,9.73
2018-11-27T20:15:14.779Z,9.23
2018-11-27T20:17:42.828Z,9.27
2018-11-27T20:20:11.905Z,8.83
2018-11-27T20:22:40.045Z,8.37
2018-11-27T20:25:10.573Z,9.03
2018-11-27T20:27:38.547Z,8.73
2018-11-27T20:30:09.650Z,8.50
2018-11-27T20:32:37.915Z,8.37
2018-11-27T20:35:07.847Z,8.37
2018-11-27T20:40:17.302Z,8.03
2018-11-27T20:42:45.373Z,8.80
2018-11-27T20:45:19.851Z,7.97
2018-11-27T20:47:49.668Z,8.07
2018-11-27T20:50:19.019Z,7.53
2018-11-27T20:52:47.128Z,8.23
2018-11-27T20:55:15.610Z,7.63
2018-11-27T20:57:53.010Z,7.50
2018-11-27T21:00:23.235Z,7.93
2018-11-27T21:02:52.952Z,8.10
2018-11-27T21:05:21.018Z,7.90
2018-11-27T21:07:49.137Z,7.80
2018-11-27T21:10:17.122Z,8.30
2018-11-27T21:12:45.236Z,8.73
2018-11-27T21:15:15.098Z,7.57
2018-11-27T21:17:43.045Z,8.43
2018-11-27T21:20:12.242Z,7.80
2018-11-27T21:22:40.438Z,7.90
2018-11-27T21:25:13.719Z,8.53
2018-11-27T21:27:42.584Z,7.80
2018-11-27T21:30:13.747Z,8.43
2018-11-27T21:32:42.030Z,8.37
2018-11-27T21:35:11.413Z,8.47
2018-11-27T21:37:39.552Z,8.37
2018-11-27T21:40:09.240Z,8.87
2018-11-27T21:42:37.221Z,9.07
2018-11-27T21:52:11.484Z,9.03
2018-11-27T21:54:39.452Z,8.87
2018-11-27T21:57:07.457Z,9.20
2018-11-27T21:59:35.525Z,8.73
2018-11-27T22:02:03.514Z,10.10
2018-11-27T22:04:31.498Z,10.10
2018-11-27T22:06:59.470Z,9.40
2018-11-27T22:09:27.645Z,9.67
2018-11-27T22:11:55.662Z,8.97
2018-11-27T22:14:23.709Z,9.23
2018-11-27T22:16:51.903Z,9.87
2018-11-27T22:19:19.849Z,10.77
2018-11-27T22:21:47.833Z,9.33
2018-11-27T22:24:15.805Z,8.90
2018-11-27T22:26:43.860Z,9.43
2018-11-27T22:29:11.920Z,9.57
2018-11-27T22:31:39.913Z,9.60
2018-11-27T22:34:07.873Z,9.50
2018-11-27T22:36:35.834Z,9.23
2018-11-27T22:39:04.630Z,9.70
2018-11-27T22:41:32.572Z,9.30
2018-11-27T22:44:00.589Z,9.70
2018-11-27T22:46:28.945Z,9.30
2018-11-27T22:48:56.900Z,10.40
2018-11-27T22:51:24.928Z,10.27
2018-11-27T22:53:53.297Z,10.73
2018-11-27T22:56:21.260Z,9.83
2018-11-27T22:58:49.212Z,10.27
2018-11-27T23:01:20.767Z,10.83
2018-11-27T23:03:48.748Z,11.00
2018-11-27T23:06:16.720Z,11.00
2018-11-27T23:08:44.757Z,10.33
2018-11-27T23:11:12.761Z,10.87
2018-11-27T23:13:40.783Z,10.90
2018-11-27T23:16:08.725Z,10.33
2018-11-27T23:18:36.746Z,10.80
2018-11-27T23:21:04.715Z,10.77
2018-11-27T23:23:32.681Z,11.20
2018-11-27T23:26:00.751Z,10.43
2018-11-27T23:28:28.697Z,11.63
2018-11-27T23:30:56.693Z,10.47
2018-11-27T23:33:24.746Z,8.73
2018-11-27T23:35:53.114Z,10.93
2018-11-27T23:38:21.215Z,10.50
2018-11-27T23:40:49.256Z,10.17
2018-11-27T23:43:17.993Z,9.70
2018-11-27T23:45:46.040Z,9.87
2018-11-27T23:48:17.398Z,8.93
2018-11-27T23:50:45.478Z,9.27
2018-11-27T23:53:13.496Z,9.37
2018-11-27T23:55:41.455Z,8.73
2018-11-27T23:58:09.582Z,8.80
